Cameta, Brazil
Current Conditions -  °F | °C
As of 12:00 AM on Friday 19 Dec 2014 (Local Time) from SBBE Reporting Station
Clear Clear  
Wind Chill: 77°   Ceiling: Unl
Heat Index: 78°   Visibility: 6mi
Dew Point: 72°   Wind: 7mph
Humidity: 83%   Direction: 70°ENE
Pressure: 29.83"   Gusts: NA
Location:  2.24°S, 49.5°W
Report Text: SBBE 190300Z 07006KT CAVOK 25/22 Q1010
Loading
Personal Weather Stations






























Interactive Weather Map New forecast layout! Learn more

10-Day Weather Forecast

Advertisements
Track Severe Weather on mobile